createdAt,value
2023-01-01T00:01:55.994Z,16.88
2023-01-01T00:06:57.699Z,16.85
2023-01-01T00:11:59.360Z,16.87
2023-01-01T00:17:01.047Z,16.87
2023-01-01T00:22:27.930Z,16.82
2023-01-01T00:27:24.288Z,16.59
2023-01-01T00:32:26.259Z,16.65
2023-01-01T00:37:28.576Z,16.65
2023-01-01T00:42:30.250Z,16.60
2023-01-01T00:47:31.859Z,16.49
2023-01-01T00:52:33.476Z,16.29
2023-01-01T00:57:35.199Z,16.14
2023-01-01T01:02:37.176Z,16.00
2023-01-01T01:07:39.837Z,16.01
2023-01-01T01:12:41.668Z,16.08
2023-01-01T01:17:43.321Z,16.17
2023-01-01T01:22:47.980Z,16.15
2023-01-01T01:27:49.633Z,16.01
2023-01-01T01:32:51.254Z,15.92
2023-01-01T01:37:52.913Z,15.83
2023-01-01T01:42:54.615Z,15.79
2023-01-01T01:47:58.418Z,15.78
2023-01-01T01:53:05.117Z,15.66
2023-01-01T01:58:07.971Z,15.74
2023-01-01T02:03:14.452Z,15.67
2023-01-01T02:08:16.704Z,15.81
2023-01-01T02:13:18.509Z,15.80
2023-01-01T02:18:25.234Z,15.74
2023-01-01T02:23:48.659Z,15.75
2023-01-01T02:28:55.061Z,15.78
2023-01-01T02:34:00.680Z,15.86
2023-01-01T02:39:04.399Z,15.88
2023-01-01T02:49:10.609Z,15.74
2023-01-01T02:54:16.596Z,15.67
2023-01-01T02:59:59.735Z,15.66
2023-01-01T03:05:13.146Z,15.73
2023-01-01T03:10:18.702Z,15.77
2023-01-01T03:15:45.584Z,15.83
2023-01-01T03:20:49.376Z,15.74
2023-01-01T03:25:53.181Z,15.80
2023-01-01T03:30:55.718Z,15.72
2023-01-01T03:36:07.524Z,15.71
2023-01-01T03:41:15.852Z,15.65
2023-01-01T03:46:20.906Z,15.72
2023-01-01T03:51:38.199Z,15.72
2023-01-01T03:56:45.966Z,15.51
2023-01-01T04:01:53.301Z,15.34
2023-01-01T04:06:55.230Z,15.33
2023-01-01T04:12:06.852Z,15.45
2023-01-01T04:17:10.594Z,15.44
2023-01-01T04:22:12.248Z,15.51
2023-01-01T04:27:14.155Z,15.54
2023-01-01T04:32:15.786Z,15.52
2023-01-01T04:37:17.535Z,15.48
2023-01-01T04:42:19.397Z,15.43
2023-01-01T04:47:22.147Z,15.42
2023-01-01T04:52:24.237Z,15.46
2023-01-01T04:57:25.880Z,15.43
2023-01-01T05:02:27.649Z,15.37
2023-01-01T05:07:29.419Z,15.41
2023-01-01T05:12:31.016Z,15.53
2023-01-01T05:17:32.648Z,15.66
2023-01-01T05:22:34.265Z,15.71
2023-01-01T05:27:35.863Z,15.73
2023-01-01T05:32:38.019Z,15.69
2023-01-01T05:37:39.652Z,15.72
2023-01-01T05:42:41.272Z,15.83
2023-01-01T05:47:42.867Z,15.71
2023-01-01T05:52:44.468Z,15.72
2023-01-01T05:57:46.143Z,15.61
2023-01-01T06:02:49.897Z,15.53
2023-01-01T06:07:51.679Z,15.51
2023-01-01T06:12:58.580Z,15.55
2023-01-01T06:18:00.807Z,15.48
2023-01-01T06:23:02.404Z,15.44
2023-01-01T06:28:04.228Z,15.46
2023-01-01T06:33:05.902Z,15.42
2023-01-01T06:38:07.517Z,15.36
2023-01-01T06:43:09.147Z,15.40
2023-01-01T06:48:10.757Z,15.37
2023-01-01T06:53:12.353Z,15.33
2023-01-01T06:58:14.447Z,15.31
2023-01-01T07:03:16.170Z,15.17
2023-01-01T07:08:17.816Z,15.22
2023-01-01T07:13:19.412Z,15.26
2023-01-01T07:18:22.593Z,15.34
2023-01-01T07:23:25.341Z,15.38
2023-01-01T07:28:27.320Z,15.52
2023-01-01T07:33:28.949Z,15.66
2023-01-01T07:38:30.546Z,15.56
2023-01-01T07:43:32.162Z,15.61
2023-01-01T07:48:39.785Z,15.63
2023-01-01T07:53:41.876Z,15.57
2023-01-01T07:58:43.546Z,15.63
2023-01-01T08:03:45.572Z,15.75
2023-01-01T08:08:47.189Z,15.67
2023-01-01T08:13:48.804Z,15.69
2023-01-01T08:18:50.484Z,15.64
2023-01-01T08:23:52.236Z,15.69
2023-01-01T08:28:57.410Z,15.74
2023-01-01T08:33:59.327Z,15.78
2023-01-01T08:39:01.069Z,15.91
2023-01-01T08:44:02.692Z,15.98
2023-01-01T08:49:04.376Z,16.04
2023-01-01T08:54:06.190Z,16.25
2023-01-01T08:59:07.809Z,16.22
2023-01-01T09:04:15.724Z,16.30
2023-01-01T09:09:19.646Z,16.37
2023-01-01T09:14:22.120Z,16.46
2023-01-01T09:19:23.797Z,16.44
2023-01-01T09:24:25.472Z,16.42
2023-01-01T09:29:27.086Z,16.43
2023-01-01T09:34:28.707Z,16.37
2023-01-01T09:39:30.383Z,16.41
2023-01-01T09:44:46.302Z,16.45
2023-01-01T09:49:49.943Z,16.43
2023-01-01T09:55:00.033Z,16.53
2023-01-01T10:00:01.816Z,16.63
2023-01-01T10:05:26.491Z,16.73
2023-01-01T10:10:52.847Z,16.83
2023-01-01T10:16:09.106Z,16.92
2023-01-01T10:21:22.262Z,16.94
2023-01-01T10:26:26.866Z,17.00
2023-01-01T10:31:31.606Z,17.03
2023-01-01T10:36:33.382Z,17.01
2023-01-01T10:41:35.057Z,17.04
2023-01-01T10:46:40.295Z,17.04
2023-01-01T10:51:47.837Z,17.06
2023-01-01T10:56:49.522Z,17.08
2023-01-01T11:02:14.676Z,17.11
2023-01-01T11:07:21.673Z,17.16
2023-01-01T11:13:03.498Z,17.26
2023-01-01T11:17:51.693Z,17.37
2023-01-01T11:22:53.331Z,17.40
2023-01-01T11:28:16.593Z,17.40
2023-01-01T11:33:18.291Z,17.44
2023-01-01T11:38:27.569Z,17.47
2023-01-01T11:43:37.642Z,17.47
2023-01-01T11:48:42.738Z,17.44
2023-01-01T11:53:44.453Z,17.46
2023-01-01T11:59:02.699Z,17.56
2023-01-01T12:04:11.207Z,17.60
2023-01-01T12:09:28.699Z,17.58
2023-01-01T12:15:00.395Z,17.59
2023-01-01T12:20:08.776Z,17.55
2023-01-01T12:25:15.051Z,17.57
2023-01-01T12:30:22.857Z,17.55
2023-01-01T12:35:36.938Z,17.59
2023-01-01T12:40:53.619Z,17.46
2023-01-01T12:46:04.139Z,17.46
2023-01-01T12:51:41.056Z,17.38
2023-01-01T12:57:01.367Z,17.32
2023-01-01T13:02:17.216Z,17.29
2023-01-01T13:07:26.628Z,17.29
2023-01-01T13:12:29.049Z,17.30
2023-01-01T13:17:30.704Z,17.21
2023-01-01T13:22:39.019Z,17.11
2023-01-01T13:28:02.693Z,17.00
2023-01-01T13:33:44.019Z,16.84
2023-01-01T13:38:45.872Z,16.71
2023-01-01T13:43:47.526Z,16.66
2023-01-01T13:49:12.975Z,16.61
2023-01-01T13:54:41.704Z,16.60
2023-01-01T14:00:04.846Z,16.51
2023-01-01T14:05:49.069Z,16.46
2023-01-01T14:10:51.023Z,16.38
2023-01-01T14:15:58.521Z,16.17
2023-01-01T14:21:00.460Z,16.09
2023-01-01T14:26:06.033Z,16.05
2023-01-01T14:31:13.621Z,16.00
2023-01-01T14:36:22.651Z,15.91
2023-01-01T14:41:41.677Z,15.81
2023-01-01T14:46:49.028Z,15.65
2023-01-01T14:51:55.733Z,15.68
2023-01-01T14:56:57.680Z,15.68
2023-01-01T15:02:03.535Z,15.66
2023-01-01T15:07:05.809Z,15.70
2023-01-01T15:12:12.886Z,15.63
2023-01-01T15:17:16.788Z,15.57
2023-01-01T15:22:29.484Z,15.42
2023-01-01T15:27:33.796Z,15.30
2023-01-01T15:32:38.517Z,15.11
2023-01-01T15:37:46.231Z,15.01
2023-01-01T15:43:15.037Z,14.88
2023-01-01T15:48:20.807Z,14.70
2023-01-01T15:53:29.487Z,14.59
2023-01-01T15:58:51.448Z,14.48
2023-01-01T16:04:00.800Z,14.39
2023-01-01T16:09:02.643Z,14.35
2023-01-01T16:14:04.795Z,14.43
2023-01-01T16:19:09.414Z,14.55
2023-01-01T16:24:15.097Z,14.67
2023-01-01T16:29:16.812Z,14.90
2023-01-01T16:34:18.445Z,15.04
2023-01-01T16:39:20.101Z,14.99
2023-01-01T16:44:21.772Z,14.94
2023-01-01T16:49:23.444Z,14.74
2023-01-01T16:54:25.101Z,14.60
2023-01-01T16:59:26.834Z,14.54
2023-01-01T17:04:28.574Z,14.59
2023-01-01T17:09:30.274Z,14.64
2023-01-01T17:14:31.943Z,14.68
2023-01-01T17:19:33.698Z,14.70
2023-01-01T17:24:35.350Z,14.68
2023-01-01T17:29:37.030Z,14.74
2023-01-01T17:34:38.726Z,14.74
2023-01-01T17:39:40.401Z,14.77
2023-01-01T17:44:42.235Z,14.68
2023-01-01T17:49:44.175Z,14.62
2023-01-01T17:54:45.882Z,14.56
2023-01-01T17:59:47.829Z,14.44
2023-01-01T18:04:49.566Z,14.33
2023-01-01T18:09:51.187Z,14.33
2023-01-01T18:14:52.920Z,14.25
2023-01-01T18:19:54.787Z,14.21
2023-01-01T18:24:56.438Z,14.19
2023-01-01T18:29:58.049Z,14.21
2023-01-01T18:34:59.635Z,14.24
2023-01-01T18:40:01.269Z,14.24
2023-01-01T18:45:23.638Z,14.24
2023-01-01T18:50:29.217Z,14.24
2023-01-01T18:55:30.892Z,14.32
2023-01-01T19:00:35.994Z,14.38
2023-01-01T19:05:38.291Z,14.40
2023-01-01T19:10:54.181Z,14.44
2023-01-01T19:16:11.254Z,14.42
2023-01-01T19:21:13.141Z,14.42
2023-01-01T19:26:30.402Z,14.37
2023-01-01T19:31:32.073Z,14.37
2023-01-01T19:36:33.703Z,14.30
2023-01-01T19:41:36.244Z,14.31
2023-01-01T19:46:38.038Z,14.29
2023-01-01T19:51:39.818Z,14.31
2023-01-01T19:56:41.540Z,14.28
2023-01-01T20:01:43.761Z,14.23
2023-01-01T20:06:45.471Z,14.28
2023-01-01T20:11:50.599Z,14.44
2023-01-01T20:16:53.452Z,14.47
2023-01-01T20:22:14.412Z,14.55
2023-01-01T20:27:26.849Z,14.54
2023-01-01T20:32:28.609Z,14.56
2023-01-01T20:37:39.348Z,14.46
2023-01-01T20:42:41.021Z,14.30
2023-01-01T20:47:42.668Z,14.23
2023-01-01T20:52:44.482Z,14.10
2023-01-01T20:57:46.122Z,14.02
2023-01-01T21:02:48.888Z,13.89
2023-01-01T21:07:50.794Z,13.81
2023-01-01T21:12:53.926Z,13.73
2023-01-01T21:17:55.629Z,13.68
2023-01-01T21:22:59.264Z,13.62
2023-01-01T21:28:00.942Z,13.50
2023-01-01T21:33:02.552Z,13.39
2023-01-01T21:38:17.287Z,13.33
2023-01-01T21:43:33.416Z,13.23
2023-01-01T21:48:58.342Z,13.20
2023-01-01T21:54:09.180Z,13.25
2023-01-01T21:59:27.443Z,13.18
2023-01-01T22:04:34.065Z,13.08
2023-01-01T22:09:46.523Z,13.12
2023-01-01T22:14:50.374Z,13.19
2023-01-01T22:19:53.125Z,13.27
2023-01-01T22:25:02.672Z,13.22
2023-01-01T22:30:26.933Z,13.19
2023-01-01T22:35:32.850Z,13.18
2023-01-01T22:40:37.964Z,13.13
2023-01-01T22:45:49.195Z,13.08
2023-01-01T22:50:54.026Z,13.08
2023-01-01T22:55:55.765Z,13.12
2023-01-01T23:00:57.401Z,13.18
2023-01-01T23:05:59.214Z,13.25
2023-01-01T23:11:02.470Z,13.33
2023-01-01T23:16:04.425Z,13.35
2023-01-01T23:21:12.035Z,13.33
2023-01-01T23:26:13.828Z,13.28
2023-01-01T23:31:24.337Z,13.25
2023-01-01T23:36:27.671Z,13.23
2023-01-01T23:41:29.369Z,13.22
2023-01-01T23:46:34.535Z,13.15
2023-01-01T23:51:38.028Z,13.11
2023-01-01T23:56:39.648Z,13.07
